sensor_id;sensor_type;location;lat;lon;timestamp;P1;durP1;ratioP1;P2;durP2;ratioP2
71080;SDS011;58740;50.672;18.690;2023-05-20T00:01:02;16.20;;;8.40;;
71080;SDS011;58740;50.672;18.690;2023-05-20T00:03:30;28.00;;;14.60;;
71080;SDS011;58740;50.672;18.690;2023-05-20T00:05:58;26.40;;;14.90;;
71080;SDS011;58740;50.672;18.690;2023-05-20T00:08:26;20.40;;;11.00;;
71080;SDS011;58740;50.672;18.690;2023-05-20T00:10:53;23.00;;;12.10;;
71080;SDS011;58740;50.672;18.690;2023-05-20T00:13:21;24.10;;;12.10;;
71080;SDS011;58740;50.672;18.690;2023-05-20T00:15:51;20.70;;;11.70;;
71080;SDS011;58740;50.672;18.690;2023-05-20T00:18:19;22.00;;;12.50;;
71080;SDS011;58740;50.672;18.690;2023-05-20T00:20:47;26.20;;;13.50;;
71080;SDS011;58740;50.672;18.690;2023-05-20T00:23:15;22.60;;;11.80;;
71080;SDS011;58740;50.672;18.690;2023-05-20T00:25:42;19.80;;;10.00;;
71080;SDS011;58740;50.672;18.690;2023-05-20T00:28:10;17.80;;;10.30;;
71080;SDS011;58740;50.672;18.690;2023-05-20T00:30:41;24.10;;;13.10;;
71080;SDS011;58740;50.672;18.690;2023-05-20T00:33:09;25.30;;;14.00;;
71080;SDS011;58740;50.672;18.690;2023-05-20T00:35:36;26.80;;;12.30;;
71080;SDS011;58740;50.672;18.690;2023-05-20T00:38:04;24.30;;;13.10;;
71080;SDS011;58740;50.672;18.690;2023-05-20T00:40:32;22.40;;;13.30;;
71080;SDS011;58740;50.672;18.690;2023-05-20T00:43:00;27.50;;;14.30;;
71080;SDS011;58740;50.672;18.690;2023-05-20T00:45:27;25.30;;;12.80;;
71080;SDS011;58740;50.672;18.690;2023-05-20T00:47:56;24.40;;;13.50;;
71080;SDS011;58740;50.672;18.690;2023-05-20T00:50:26;23.70;;;12.60;;
71080;SDS011;58740;50.672;18.690;2023-05-20T00:52:54;20.80;;;11.90;;
71080;SDS011;58740;50.672;18.690;2023-05-20T00:55:22;23.70;;;12.30;;
71080;SDS011;58740;50.672;18.690;2023-05-20T00:57:51;21.00;;;11.90;;
71080;SDS011;58740;50.672;18.690;2023-05-20T01:00:20;24.50;;;11.90;;
71080;SDS011;58740;50.672;18.690;2023-05-20T01:02:47;19.90;;;10.00;;
71080;SDS011;58740;50.672;18.690;2023-05-20T01:05:16;25.00;;;13.20;;
71080;SDS011;58740;50.672;18.690;2023-05-20T01:07:43;22.40;;;11.90;;
71080;SDS011;58740;50.672;18.690;2023-05-20T01:10:11;20.40;;;10.60;;
71080;SDS011;58740;50.672;18.690;2023-05-20T01:12:53;23.70;;;13.60;;
71080;SDS011;58740;50.672;18.690;2023-05-20T01:15:24;24.00;;;13.10;;
71080;SDS011;58740;50.672;18.690;2023-05-20T01:17:57;22.30;;;13.00;;
71080;SDS011;58740;50.672;18.690;2023-05-20T01:20:28;25.70;;;13.30;;
71080;SDS011;58740;50.672;18.690;2023-05-20T01:22:59;23.70;;;13.00;;
71080;SDS011;58740;50.672;18.690;2023-05-20T01:25:27;21.20;;;11.30;;
71080;SDS011;58740;50.672;18.690;2023-05-20T01:27:56;20.80;;;11.50;;
71080;SDS011;58740;50.672;18.690;2023-05-20T01:30:34;21.50;;;11.70;;
71080;SDS011;58740;50.672;18.690;2023-05-20T01:33:09;19.90;;;10.50;;
71080;SDS011;58740;50.672;18.690;2023-05-20T01:35:39;22.20;;;11.60;;
71080;SDS011;58740;50.672;18.690;2023-05-20T01:38:08;22.80;;;12.00;;
71080;SDS011;58740;50.672;18.690;2023-05-20T01:40:36;26.00;;;10.80;;
71080;SDS011;58740;50.672;18.690;2023-05-20T01:43:06;21.60;;;12.10;;
71080;SDS011;58740;50.672;18.690;2023-05-20T01:45:34;25.10;;;12.50;;
71080;SDS011;58740;50.672;18.690;2023-05-20T01:48:03;19.30;;;10.70;;
71080;SDS011;58740;50.672;18.690;2023-05-20T01:50:31;19.80;;;10.60;;
71080;SDS011;58740;50.672;18.690;2023-05-20T01:52:58;17.00;;;9.60;;
71080;SDS011;58740;50.672;18.690;2023-05-20T01:55:26;18.40;;;9.80;;
71080;SDS011;58740;50.672;18.690;2023-05-20T01:57:54;19.90;;;11.70;;
71080;SDS011;58740;50.672;18.690;2023-05-20T02:00:22;22.00;;;12.00;;
71080;SDS011;58740;50.672;18.690;2023-05-20T02:02:50;20.40;;;10.30;;
71080;SDS011;58740;50.672;18.690;2023-05-20T02:05:18;19.50;;;10.20;;
71080;SDS011;58740;50.672;18.690;2023-05-20T02:07:45;19.20;;;11.50;;
71080;SDS011;58740;50.672;18.690;2023-05-20T02:10:13;18.20;;;10.00;;
71080;SDS011;58740;50.672;18.690;2023-05-20T02:12:41;18.10;;;10.10;;
71080;SDS011;58740;50.672;18.690;2023-05-20T02:15:09;15.90;;;8.90;;
71080;SDS011;58740;50.672;18.690;2023-05-20T02:17:37;16.40;;;8.20;;
71080;SDS011;58740;50.672;18.690;2023-05-20T02:20:06;15.30;;;8.30;;
71080;SDS011;58740;50.672;18.690;2023-05-20T02:22:35;17.90;;;9.00;;
71080;SDS011;58740;50.672;18.690;2023-05-20T02:25:03;10.20;;;5.80;;
71080;SDS011;58740;50.672;18.690;2023-05-20T02:27:31;15.60;;;8.00;;
71080;SDS011;58740;50.672;18.690;2023-05-20T02:29:59;11.50;;;5.50;;
71080;SDS011;58740;50.672;18.690;2023-05-20T02:32:27;15.60;;;8.30;;
71080;SDS011;58740;50.672;18.690;2023-05-20T02:34:56;12.50;;;6.40;;
71080;SDS011;58740;50.672;18.690;2023-05-20T02:37:23;12.80;;;7.10;;
71080;SDS011;58740;50.672;18.690;2023-05-20T02:39:51;12.70;;;6.80;;
71080;SDS011;58740;50.672;18.690;2023-05-20T02:42:19;14.20;;;8.10;;
71080;SDS011;58740;50.672;18.690;2023-05-20T02:44:46;15.40;;;8.30;;
71080;SDS011;58740;50.672;18.690;2023-05-20T02:47:14;14.50;;;8.00;;
71080;SDS011;58740;50.672;18.690;2023-05-20T02:49:42;10.60;;;5.80;;
71080;SDS011;58740;50.672;18.690;2023-05-20T02:52:10;13.60;;;7.80;;
71080;SDS011;58740;50.672;18.690;2023-05-20T02:54:38;15.20;;;8.10;;
71080;SDS011;58740;50.672;18.690;2023-05-20T02:57:06;15.00;;;8.40;;
71080;SDS011;58740;50.672;18.690;2023-05-20T02:59:33;15.20;;;8.00;;
71080;SDS011;58740;50.672;18.690;2023-05-20T03:02:01;13.60;;;8.20;;
71080;SDS011;58740;50.672;18.690;2023-05-20T03:04:29;17.70;;;8.50;;
71080;SDS011;58740;50.672;18.690;2023-05-20T03:06:58;15.80;;;9.10;;
71080;SDS011;58740;50.672;18.690;2023-05-20T03:09:25;19.00;;;9.60;;
71080;SDS011;58740;50.672;18.690;2023-05-20T03:11:53;19.30;;;10.60;;
71080;SDS011;58740;50.672;18.690;2023-05-20T03:14:21;20.40;;;11.00;;
71080;SDS011;58740;50.672;18.690;2023-05-20T03:16:49;18.30;;;10.00;;
71080;SDS011;58740;50.672;18.690;2023-05-20T03:19:17;21.30;;;11.20;;
71080;SDS011;58740;50.672;18.690;2023-05-20T03:22:01;15.60;;;7.50;;
71080;SDS011;58740;50.672;18.690;2023-05-20T03:24:28;18.40;;;9.80;;
71080;SDS011;58740;50.672;18.690;2023-05-20T03:26:56;20.30;;;11.40;;
71080;SDS011;58740;50.672;18.690;2023-05-20T03:29:24;23.90;;;12.10;;
71080;SDS011;58740;50.672;18.690;2023-05-20T03:31:51;18.00;;;9.90;;
71080;SDS011;58740;50.672;18.690;2023-05-20T03:34:20;20.40;;;10.10;;
71080;SDS011;58740;50.672;18.690;2023-05-20T03:36:49;22.20;;;10.90;;
71080;SDS011;58740;50.672;18.690;2023-05-20T03:39:18;20.30;;;11.10;;
71080;SDS011;58740;50.672;18.690;2023-05-20T03:41:45;23.80;;;12.10;;
71080;SDS011;58740;50.672;18.690;2023-05-20T03:44:13;21.90;;;11.30;;
71080;SDS011;58740;50.672;18.690;2023-05-20T03:46:41;22.60;;;11.10;;
71080;SDS011;58740;50.672;18.690;2023-05-20T03:49:08;25.00;;;14.00;;
71080;SDS011;58740;50.672;18.690;2023-05-20T03:51:36;23.80;;;12.10;;
71080;SDS011;58740;50.672;18.690;2023-05-20T03:54:04;20.40;;;10.70;;
71080;SDS011;58740;50.672;18.690;2023-05-20T03:56:32;19.50;;;11.30;;
71080;SDS011;58740;50.672;18.690;2023-05-20T03:59:00;23.00;;;11.80;;
71080;SDS011;58740;50.672;18.690;2023-05-20T04:01:27;20.90;;;11.40;;
71080;SDS011;58740;50.672;18.690;2023-05-20T04:03:55;20.20;;;10.00;;
71080;SDS011;58740;50.672;18.690;2023-05-20T04:06:23;20.20;;;10.40;;
71080;SDS011;58740;50.672;18.690;2023-05-20T04:08:51;20.90;;;10.10;;
71080;SDS011;58740;50.672;18.690;2023-05-20T04:11:19;23.00;;;12.40;;
71080;SDS011;58740;50.672;18.690;2023-05-20T04:13:47;23.50;;;12.00;;
71080;SDS011;58740;50.672;18.690;2023-05-20T04:16:15;24.30;;;12.90;;
71080;SDS011;58740;50.672;18.690;2023-05-20T04:18:43;24.40;;;13.20;;
71080;SDS011;58740;50.672;18.690;2023-05-20T04:21:12;24.10;;;13.20;;
71080;SDS011;58740;50.672;18.690;2023-05-20T04:23:40;24.60;;;12.30;;
71080;SDS011;58740;50.672;18.690;2023-05-20T04:26:08;26.10;;;12.70;;
71080;SDS011;58740;50.672;18.690;2023-05-20T04:28:36;21.70;;;11.40;;
71080;SDS011;58740;50.672;18.690;2023-05-20T04:31:04;23.70;;;11.80;;
71080;SDS011;58740;50.672;18.690;2023-05-20T04:33:32;26.00;;;12.30;;
71080;SDS011;58740;50.672;18.690;2023-05-20T04:36:06;22.80;;;11.20;;
71080;SDS011;58740;50.672;18.690;2023-05-20T04:38:36;22.60;;;11.00;;
71080;SDS011;58740;50.672;18.690;2023-05-20T04:41:04;23.60;;;11.30;;
71080;SDS011;58740;50.672;18.690;2023-05-20T04:43:33;21.90;;;11.10;;
71080;SDS011;58740;50.672;18.690;2023-05-20T04:46:01;19.20;;;10.10;;
71080;SDS011;58740;50.672;18.690;2023-05-20T04:48:33;19.00;;;10.40;;
71080;SDS011;58740;50.672;18.690;2023-05-20T04:51:00;16.80;;;8.10;;
71080;SDS011;58740;50.672;18.690;2023-05-20T04:53:28;18.00;;;8.70;;
71080;SDS011;58740;50.672;18.690;2023-05-20T04:56:00;13.90;;;6.10;;
71080;SDS011;58740;50.672;18.690;2023-05-20T04:58:29;11.90;;;6.20;;
71080;SDS011;58740;50.672;18.690;2023-05-20T05:00:58;11.50;;;6.40;;
71080;SDS011;58740;50.672;18.690;2023-05-20T05:03:25;12.60;;;6.60;;
71080;SDS011;58740;50.672;18.690;2023-05-20T05:05:57;11.70;;;6.70;;
71080;SDS011;58740;50.672;18.690;2023-05-20T05:08:25;11.80;;;5.30;;
71080;SDS011;58740;50.672;18.690;2023-05-20T05:10:53;11.90;;;5.50;;
71080;SDS011;58740;50.672;18.690;2023-05-20T05:13:21;14.20;;;6.20;;
71080;SDS011;58740;50.672;18.690;2023-05-20T05:16:00;13.00;;;5.80;;
71080;SDS011;58740;50.672;18.690;2023-05-20T05:18:29;12.30;;;6.60;;
71080;SDS011;58740;50.672;18.690;2023-05-20T05:21:04;11.50;;;5.70;;
71080;SDS011;58740;50.672;18.690;2023-05-20T05:23:32;11.80;;;5.90;;
71080;SDS011;58740;50.672;18.690;2023-05-20T05:26:00;10.80;;;6.10;;
71080;SDS011;58740;50.672;18.690;2023-05-20T05:28:28;11.10;;;5.90;;
71080;SDS011;58740;50.672;18.690;2023-05-20T05:30:56;11.00;;;6.30;;
71080;SDS011;58740;50.672;18.690;2023-05-20T05:33:24;11.10;;;5.60;;
71080;SDS011;58740;50.672;18.690;2023-05-20T05:35:52;11.50;;;5.80;;
71080;SDS011;58740;50.672;18.690;2023-05-20T05:38:20;12.40;;;6.60;;
71080;SDS011;58740;50.672;18.690;2023-05-20T05:40:48;12.40;;;6.80;;
71080;SDS011;58740;50.672;18.690;2023-05-20T05:43:16;13.30;;;6.90;;
71080;SDS011;58740;50.672;18.690;2023-05-20T05:45:43;13.10;;;6.40;;
71080;SDS011;58740;50.672;18.690;2023-05-20T05:48:11;14.00;;;7.20;;
71080;SDS011;58740;50.672;18.690;2023-05-20T05:50:43;9.90;;;5.30;;
71080;SDS011;58740;50.672;18.690;2023-05-20T05:53:12;11.80;;;6.20;;
71080;SDS011;58740;50.672;18.690;2023-05-20T05:55:40;13.50;;;7.20;;
71080;SDS011;58740;50.672;18.690;2023-05-20T05:58:08;11.90;;;6.60;;
71080;SDS011;58740;50.672;18.690;2023-05-20T06:00:35;16.70;;;9.00;;
71080;SDS011;58740;50.672;18.690;2023-05-20T06:03:03;16.80;;;9.30;;
71080;SDS011;58740;50.672;18.690;2023-05-20T06:05:31;16.70;;;9.70;;
71080;SDS011;58740;50.672;18.690;2023-05-20T06:08:00;16.00;;;8.40;;
71080;SDS011;58740;50.672;18.690;2023-05-20T06:10:27;16.40;;;9.10;;
71080;SDS011;58740;50.672;18.690;2023-05-20T06:12:55;18.10;;;8.40;;
71080;SDS011;58740;50.672;18.690;2023-05-20T06:15:23;17.20;;;8.80;;
71080;SDS011;58740;50.672;18.690;2023-05-20T06:17:51;17.60;;;9.30;;
71080;SDS011;58740;50.672;18.690;2023-05-20T06:20:19;16.70;;;8.70;;
71080;SDS011;58740;50.672;18.690;2023-05-20T06:22:47;16.50;;;9.10;;
71080;SDS011;58740;50.672;18.690;2023-05-20T06:25:14;15.90;;;9.10;;
71080;SDS011;58740;50.672;18.690;2023-05-20T06:27:42;18.50;;;9.40;;
71080;SDS011;58740;50.672;18.690;2023-05-20T06:30:10;14.20;;;8.70;;
71080;SDS011;58740;50.672;18.690;2023-05-20T06:32:38;16.00;;;9.50;;
71080;SDS011;58740;50.672;18.690;2023-05-20T06:35:07;19.20;;;10.70;;
71080;SDS011;58740;50.672;18.690;2023-05-20T06:37:35;18.60;;;10.20;;
71080;SDS011;58740;50.672;18.690;2023-05-20T06:40:03;19.60;;;10.10;;
71080;SDS011;58740;50.672;18.690;2023-05-20T06:42:31;18.00;;;9.90;;
71080;SDS011;58740;50.672;18.690;2023-05-20T06:44:59;17.90;;;9.70;;
71080;SDS011;58740;50.672;18.690;2023-05-20T06:47:27;19.20;;;9.20;;
71080;SDS011;58740;50.672;18.690;2023-05-20T06:49:55;17.40;;;9.40;;
71080;SDS011;58740;50.672;18.690;2023-05-20T06:52:22;17.10;;;8.90;;
71080;SDS011;58740;50.672;18.690;2023-05-20T06:54:50;18.70;;;11.50;;
71080;SDS011;58740;50.672;18.690;2023-05-20T06:57:18;17.60;;;9.70;;
71080;SDS011;58740;50.672;18.690;2023-05-20T06:59:45;18.80;;;9.20;;
71080;SDS011;58740;50.672;18.690;2023-05-20T07:02:13;17.50;;;8.90;;
71080;SDS011;58740;50.672;18.690;2023-05-20T07:04:41;15.90;;;7.00;;
71080;SDS011;58740;50.672;18.690;2023-05-20T07:07:09;18.70;;;10.10;;
71080;SDS011;58740;50.672;18.690;2023-05-20T07:09:36;13.80;;;7.00;;
71080;SDS011;58740;50.672;18.690;2023-05-20T07:12:05;15.30;;;8.80;;
71080;SDS011;58740;50.672;18.690;2023-05-20T07:14:33;17.30;;;8.90;;
71080;SDS011;58740;50.672;18.690;2023-05-20T07:17:04;20.90;;;12.40;;
71080;SDS011;58740;50.672;18.690;2023-05-20T07:19:32;18.20;;;10.60;;
71080;SDS011;58740;50.672;18.690;2023-05-20T07:22:00;22.90;;;11.60;;
71080;SDS011;58740;50.672;18.690;2023-05-20T07:24:29;21.30;;;11.90;;
71080;SDS011;58740;50.672;18.690;2023-05-20T07:27:00;20.60;;;12.20;;
71080;SDS011;58740;50.672;18.690;2023-05-20T07:29:29;22.20;;;10.30;;
71080;SDS011;58740;50.672;18.690;2023-05-20T07:31:59;19.60;;;11.40;;
71080;SDS011;58740;50.672;18.690;2023-05-20T07:34:29;20.90;;;12.90;;
71080;SDS011;58740;50.672;18.690;2023-05-20T07:36:59;22.70;;;12.40;;
71080;SDS011;58740;50.672;18.690;2023-05-20T07:39:31;22.80;;;11.60;;
71080;SDS011;58740;50.672;18.690;2023-05-20T07:41:58;18.90;;;10.40;;
71080;SDS011;58740;50.672;18.690;2023-05-20T07:44:26;20.60;;;10.90;;
71080;SDS011;58740;50.672;18.690;2023-05-20T07:46:57;18.10;;;9.70;;
71080;SDS011;58740;50.672;18.690;2023-05-20T07:49:24;19.30;;;10.40;;
71080;SDS011;58740;50.672;18.690;2023-05-20T07:51:53;20.90;;;12.00;;
71080;SDS011;58740;50.672;18.690;2023-05-20T07:54:23;23.20;;;12.30;;
71080;SDS011;58740;50.672;18.690;2023-05-20T07:56:51;22.40;;;13.30;;
71080;SDS011;58740;50.672;18.690;2023-05-20T07:59:19;22.70;;;13.20;;
71080;SDS011;58740;50.672;18.690;2023-05-20T08:01:48;21.30;;;12.30;;
71080;SDS011;58740;50.672;18.690;2023-05-20T08:04:16;18.40;;;10.80;;
71080;SDS011;58740;50.672;18.690;2023-05-20T08:06:44;22.60;;;12.70;;
71080;SDS011;58740;50.672;18.690;2023-05-20T08:09:13;19.80;;;11.80;;
71080;SDS011;58740;50.672;18.690;2023-05-20T08:11:41;25.10;;;12.80;;
71080;SDS011;58740;50.672;18.690;2023-05-20T08:14:08;20.20;;;12.20;;
71080;SDS011;58740;50.672;18.690;2023-05-20T08:16:36;21.30;;;12.20;;
71080;SDS011;58740;50.672;18.690;2023-05-20T08:19:05;24.10;;;12.80;;
71080;SDS011;58740;50.672;18.690;2023-05-20T08:21:32;21.80;;;12.40;;
71080;SDS011;58740;50.672;18.690;2023-05-20T08:24:03;20.60;;;12.10;;
71080;SDS011;58740;50.672;18.690;2023-05-20T08:26:31;22.20;;;13.70;;
71080;SDS011;58740;50.672;18.690;2023-05-20T08:28:59;22.20;;;11.90;;
71080;SDS011;58740;50.672;18.690;2023-05-20T08:31:27;21.30;;;11.90;;
71080;SDS011;58740;50.672;18.690;2023-05-20T08:33:55;20.40;;;11.40;;
71080;SDS011;58740;50.672;18.690;2023-05-20T08:36:23;23.80;;;13.00;;
71080;SDS011;58740;50.672;18.690;2023-05-20T08:38:51;24.50;;;13.80;;
71080;SDS011;58740;50.672;18.690;2023-05-20T08:41:18;24.00;;;12.90;;
71080;SDS011;58740;50.672;18.690;2023-05-20T08:43:49;27.30;;;14.10;;
71080;SDS011;58740;50.672;18.690;2023-05-20T08:46:18;20.30;;;13.30;;
71080;SDS011;58740;50.672;18.690;2023-05-20T08:48:48;26.70;;;14.00;;
71080;SDS011;58740;50.672;18.690;2023-05-20T08:51:19;22.20;;;13.20;;
71080;SDS011;58740;50.672;18.690;2023-05-20T08:53:50;25.70;;;13.10;;
71080;SDS011;58740;50.672;18.690;2023-05-20T08:56:18;22.80;;;12.80;;
71080;SDS011;58740;50.672;18.690;2023-05-20T08:58:48;25.50;;;14.20;;
71080;SDS011;58740;50.672;18.690;2023-05-20T09:01:16;24.60;;;12.90;;
71080;SDS011;58740;50.672;18.690;2023-05-20T09:03:44;22.30;;;13.20;;
71080;SDS011;58740;50.672;18.690;2023-05-20T09:06:16;22.40;;;13.30;;
71080;SDS011;58740;50.672;18.690;2023-05-20T09:08:48;25.20;;;15.00;;
71080;SDS011;58740;50.672;18.690;2023-05-20T09:11:19;23.30;;;14.20;;
71080;SDS011;58740;50.672;18.690;2023-05-20T09:13:49;24.80;;;13.20;;
71080;SDS011;58740;50.672;18.690;2023-05-20T09:16:17;24.20;;;12.70;;
71080;SDS011;58740;50.672;18.690;2023-05-20T09:18:45;22.00;;;13.50;;
71080;SDS011;58740;50.672;18.690;2023-05-20T09:21:13;24.10;;;13.90;;
71080;SDS011;58740;50.672;18.690;2023-05-20T09:23:46;26.10;;;14.20;;
71080;SDS011;58740;50.672;18.690;2023-05-20T09:26:17;21.50;;;12.90;;
71080;SDS011;58740;50.672;18.690;2023-05-20T09:28:45;21.50;;;12.70;;
71080;SDS011;58740;50.672;18.690;2023-05-20T09:31:13;23.00;;;13.80;;
71080;SDS011;58740;50.672;18.690;2023-05-20T09:33:41;21.00;;;11.00;;
71080;SDS011;58740;50.672;18.690;2023-05-20T09:36:09;18.70;;;11.30;;
71080;SDS011;58740;50.672;18.690;2023-05-20T09:38:39;22.10;;;12.90;;
71080;SDS011;58740;50.672;18.690;2023-05-20T09:41:13;22.40;;;13.10;;
71080;SDS011;58740;50.672;18.690;2023-05-20T09:43:41;21.10;;;12.80;;
71080;SDS011;58740;50.672;18.690;2023-05-20T09:46:10;24.20;;;13.40;;
71080;SDS011;58740;50.672;18.690;2023-05-20T09:48:38;22.00;;;13.20;;
71080;SDS011;58740;50.672;18.690;2023-05-20T09:51:08;18.90;;;12.50;;
71080;SDS011;58740;50.672;18.690;2023-05-20T09:53:38;18.90;;;11.30;;
71080;SDS011;58740;50.672;18.690;2023-05-20T09:56:07;22.20;;;13.60;;
71080;SDS011;58740;50.672;18.690;2023-05-20T09:58:36;23.60;;;13.00;;
71080;SDS011;58740;50.672;18.690;2023-05-20T10:01:05;21.70;;;13.50;;
71080;SDS011;58740;50.672;18.690;2023-05-20T10:03:34;21.40;;;13.10;;
71080;SDS011;58740;50.672;18.690;2023-05-20T10:06:42;18.10;;;10.20;;
71080;SDS011;58740;50.672;18.690;2023-05-20T10:09:42;22.10;;;13.80;;
71080;SDS011;58740;50.672;18.690;2023-05-20T10:12:28;22.40;;;12.90;;
71080;SDS011;58740;50.672;18.690;2023-05-20T10:18:40;23.90;;;13.50;;
71080;SDS011;58740;50.672;18.690;2023-05-20T10:21:23;18.60;;;12.20;;
71080;SDS011;58740;50.672;18.690;2023-05-20T10:23:51;16.90;;;10.70;;
71080;SDS011;58740;50.672;18.690;2023-05-20T10:26:19;18.30;;;10.60;;
71080;SDS011;58740;50.672;18.690;2023-05-20T10:28:48;21.70;;;12.90;;
71080;SDS011;58740;50.672;18.690;2023-05-20T10:31:20;20.60;;;12.90;;
71080;SDS011;58740;50.672;18.690;2023-05-20T10:33:51;22.80;;;13.50;;
71080;SDS011;58740;50.672;18.690;2023-05-20T10:36:28;24.90;;;13.20;;
71080;SDS011;58740;50.672;18.690;2023-05-20T10:38:58;20.10;;;12.10;;
71080;SDS011;58740;50.672;18.690;2023-05-20T10:41:27;18.00;;;10.60;;
71080;SDS011;58740;50.672;18.690;2023-05-20T10:44:03;17.00;;;10.50;;
71080;SDS011;58740;50.672;18.690;2023-05-20T10:46:33;18.00;;;10.70;;
71080;SDS011;58740;50.672;18.690;2023-05-20T10:49:20;19.20;;;10.70;;
71080;SDS011;58740;50.672;18.690;2023-05-20T10:51:54;20.50;;;12.20;;
71080;SDS011;58740;50.672;18.690;2023-05-20T10:54:22;19.00;;;11.10;;
71080;SDS011;58740;50.672;18.690;2023-05-20T10:56:51;17.50;;;11.00;;
71080;SDS011;58740;50.672;18.690;2023-05-20T10:59:20;18.20;;;12.00;;
71080;SDS011;58740;50.672;18.690;2023-05-20T11:01:49;17.30;;;11.00;;
71080;SDS011;58740;50.672;18.690;2023-05-20T11:04:17;20.70;;;11.10;;
71080;SDS011;58740;50.672;18.690;2023-05-20T11:06:52;16.50;;;10.10;;
71080;SDS011;58740;50.672;18.690;2023-05-20T11:09:21;13.70;;;8.40;;
71080;SDS011;58740;50.672;18.690;2023-05-20T11:11:53;15.00;;;10.60;;
71080;SDS011;58740;50.672;18.690;2023-05-20T11:14:21;18.30;;;11.50;;
71080;SDS011;58740;50.672;18.690;2023-05-20T11:16:55;15.50;;;10.10;;
71080;SDS011;58740;50.672;18.690;2023-05-20T11:19:25;17.30;;;10.90;;
71080;SDS011;58740;50.672;18.690;2023-05-20T11:21:54;17.90;;;12.20;;
71080;SDS011;58740;50.672;18.690;2023-05-20T11:24:26;17.20;;;9.70;;
71080;SDS011;58740;50.672;18.690;2023-05-20T11:26:56;14.40;;;8.90;;
71080;SDS011;58740;50.672;18.690;2023-05-20T11:29:25;19.70;;;10.50;;
71080;SDS011;58740;50.672;18.690;2023-05-20T11:31:54;17.40;;;11.00;;
71080;SDS011;58740;50.672;18.690;2023-05-20T11:34:22;12.70;;;9.20;;
71080;SDS011;58740;50.672;18.690;2023-05-20T11:36:57;17.70;;;11.10;;
71080;SDS011;58740;50.672;18.690;2023-05-20T11:39:28;17.50;;;11.80;;
71080;SDS011;58740;50.672;18.690;2023-05-20T11:41:57;17.10;;;10.60;;
71080;SDS011;58740;50.672;18.690;2023-05-20T11:44:25;16.80;;;11.00;;
71080;SDS011;58740;50.672;18.690;2023-05-20T11:46:59;15.60;;;10.50;;
71080;SDS011;58740;50.672;18.690;2023-05-20T11:49:28;16.90;;;11.10;;
71080;SDS011;58740;50.672;18.690;2023-05-20T11:51:57;16.20;;;11.10;;
71080;SDS011;58740;50.672;18.690;2023-05-20T11:54:25;19.40;;;11.50;;
71080;SDS011;58740;50.672;18.690;2023-05-20T11:56:53;16.50;;;11.10;;
71080;SDS011;58740;50.672;18.690;2023-05-20T11:59:23;14.70;;;9.80;;
71080;SDS011;58740;50.672;18.690;2023-05-20T12:01:51;18.40;;;11.20;;
71080;SDS011;58740;50.672;18.690;2023-05-20T12:04:19;16.50;;;11.30;;
71080;SDS011;58740;50.672;18.690;2023-05-20T12:06:47;16.60;;;10.70;;
71080;SDS011;58740;50.672;18.690;2023-05-20T12:09:15;17.70;;;11.30;;
71080;SDS011;58740;50.672;18.690;2023-05-20T12:11:43;15.50;;;10.90;;
71080;SDS011;58740;50.672;18.690;2023-05-20T12:14:11;17.90;;;11.20;;
71080;SDS011;58740;50.672;18.690;2023-05-20T12:16:39;19.20;;;12.00;;
71080;SDS011;58740;50.672;18.690;2023-05-20T12:19:07;14.90;;;11.10;;
71080;SDS011;58740;50.672;18.690;2023-05-20T12:21:36;17.40;;;11.70;;
71080;SDS011;58740;50.672;18.690;2023-05-20T12:24:03;17.40;;;11.70;;
71080;SDS011;58740;50.672;18.690;2023-05-20T12:26:33;17.00;;;11.10;;
71080;SDS011;58740;50.672;18.690;2023-05-20T12:29:02;18.60;;;12.30;;
71080;SDS011;58740;50.672;18.690;2023-05-20T12:31:30;17.40;;;11.50;;
71080;SDS011;58740;50.672;18.690;2023-05-20T12:34:01;18.40;;;11.00;;
71080;SDS011;58740;50.672;18.690;2023-05-20T12:36:29;17.60;;;10.90;;
71080;SDS011;58740;50.672;18.690;2023-05-20T12:38:58;17.80;;;11.70;;
71080;SDS011;58740;50.672;18.690;2023-05-20T12:41:25;17.40;;;11.40;;
71080;SDS011;58740;50.672;18.690;2023-05-20T12:43:53;18.90;;;12.00;;
71080;SDS011;58740;50.672;18.690;2023-05-20T12:46:21;18.30;;;11.40;;
71080;SDS011;58740;50.672;18.690;2023-05-20T12:48:49;17.60;;;11.50;;
71080;SDS011;58740;50.672;18.690;2023-05-20T12:51:17;18.10;;;12.10;;
71080;SDS011;58740;50.672;18.690;2023-05-20T12:53:46;18.20;;;12.10;;
71080;SDS011;58740;50.672;18.690;2023-05-20T12:56:14;20.10;;;12.50;;
71080;SDS011;58740;50.672;18.690;2023-05-20T12:58:42;19.40;;;12.10;;
71080;SDS011;58740;50.672;18.690;2023-05-20T13:01:10;19.50;;;11.60;;
71080;SDS011;58740;50.672;18.690;2023-05-20T13:03:38;17.80;;;11.20;;
71080;SDS011;58740;50.672;18.690;2023-05-20T13:06:06;23.10;;;12.40;;
71080;SDS011;58740;50.672;18.690;2023-05-20T13:08:33;21.00;;;12.50;;
71080;SDS011;58740;50.672;18.690;2023-05-20T13:11:01;19.80;;;12.20;;
71080;SDS011;58740;50.672;18.690;2023-05-20T13:13:29;18.00;;;11.20;;
71080;SDS011;58740;50.672;18.690;2023-05-20T13:15:57;20.20;;;12.30;;
71080;SDS011;58740;50.672;18.690;2023-05-20T13:18:25;21.70;;;12.90;;
71080;SDS011;58740;50.672;18.690;2023-05-20T13:20:53;20.10;;;12.90;;
71080;SDS011;58740;50.672;18.690;2023-05-20T13:23:20;19.10;;;12.80;;
71080;SDS011;58740;50.672;18.690;2023-05-20T13:25:48;17.50;;;12.30;;
71080;SDS011;58740;50.672;18.690;2023-05-20T13:28:16;18.80;;;12.50;;
71080;SDS011;58740;50.672;18.690;2023-05-20T13:30:47;18.40;;;11.40;;
71080;SDS011;58740;50.672;18.690;2023-05-20T13:33:14;17.90;;;12.00;;
71080;SDS011;58740;50.672;18.690;2023-05-20T13:35:42;18.40;;;12.10;;
71080;SDS011;58740;50.672;18.690;2023-05-20T13:38:10;19.40;;;13.40;;
71080;SDS011;58740;50.672;18.690;2023-05-20T13:40:38;17.30;;;11.50;;
71080;SDS011;58740;50.672;18.690;2023-05-20T13:43:05;18.70;;;11.10;;
71080;SDS011;58740;50.672;18.690;2023-05-20T13:45:33;17.40;;;11.10;;
71080;SDS011;58740;50.672;18.690;2023-05-20T13:48:01;17.00;;;11.30;;
71080;SDS011;58740;50.672;18.690;2023-05-20T13:50:29;13.90;;;9.00;;
71080;SDS011;58740;50.672;18.690;2023-05-20T13:52:57;17.50;;;10.50;;
71080;SDS011;58740;50.672;18.690;2023-05-20T13:55:25;16.90;;;11.40;;
71080;SDS011;58740;50.672;18.690;2023-05-20T13:57:53;16.10;;;11.30;;
71080;SDS011;58740;50.672;18.690;2023-05-20T14:00:21;18.90;;;11.10;;
71080;SDS011;58740;50.672;18.690;2023-05-20T14:02:49;16.80;;;11.70;;
71080;SDS011;58740;50.672;18.690;2023-05-20T14:05:17;17.80;;;11.60;;
71080;SDS011;58740;50.672;18.690;2023-05-20T14:07:45;22.00;;;11.80;;
71080;SDS011;58740;50.672;18.690;2023-05-20T14:10:13;16.00;;;10.40;;
71080;SDS011;58740;50.672;18.690;2023-05-20T14:12:41;19.00;;;11.20;;
71080;SDS011;58740;50.672;18.690;2023-05-20T14:15:14;17.70;;;11.50;;
71080;SDS011;58740;50.672;18.690;2023-05-20T14:17:42;14.90;;;10.50;;
71080;SDS011;58740;50.672;18.690;2023-05-20T14:20:10;19.30;;;11.80;;
71080;SDS011;58740;50.672;18.690;2023-05-20T14:22:38;19.10;;;11.20;;
71080;SDS011;58740;50.672;18.690;2023-05-20T14:25:07;11.70;;;8.30;;